Time;durP1;ratioP1;P1;durP2;ratioP2;P2;SDS_P1;SDS_P2;PMS_P1;PMS_P2;Temp;Humidity;BMP_temperature;BMP_pressure;BME280_temperature;BME280_humidity;BME280_pressure;Samples;Min_cycle;Max_cycle;Signal;HPM_P1;HPM_P2
2022/07/31 00:00:55;;;;;;;;;;;16.10;99.90;;;;;;5080700;28;20496;-65
2022/07/31 00:03:21;;;;;;;5.15;1.80;;;16.20;99.90;;;;;;5083816;28;19920;-65
2022/07/31 00:05:46;;;;;;;;;;;16.20;99.90;;;;;;5085980;28;20046;-65
2022/07/31 00:08:12;;;;;;;3.15;1.50;;;16.20;99.90;;;;;;5102465;28;19915;-65
2022/07/31 00:10:37;;;;;;;4.55;1.90;;;16.20;99.90;;;;;;5103962;28;20660;-66
2022/07/31 00:13:03;;;;;;;6.68;2.10;;;16.30;99.90;;;;;;5084809;28;20115;-66
2022/07/31 00:15:29;;;;;;;;;;;16.30;99.90;;;;;;5103841;28;20388;-65
2022/07/31 00:17:54;;;;;;;5.78;1.42;;;16.20;99.90;;;;;;5095284;28;19915;-66
2022/07/31 00:20:20;;;;;;;;;;;16.20;99.90;;;;;;5076301;28;20111;-65
2022/07/31 00:22:47;;;;;;;4.25;1.70;;;16.20;99.90;;;;;;5087899;28;19947;-66
2022/07/31 00:25:14;;;;;;;5.57;2.10;;;16.20;99.90;;;;;;5088862;28;20119;-66
2022/07/31 00:27:41;;;;;;;8.10;1.90;;;16.10;99.90;;;;;;5089616;28;20054;-65
2022/07/31 00:30:07;;;;;;;7.40;2.20;;;16.20;99.90;;;;;;5089448;28;20070;-66
2022/07/31 00:32:33;;;;;;;4.97;2.00;;;16.20;99.90;;;;;;5089105;28;20040;-64
2022/07/31 00:34:59;;;;;;;;;;;16.20;99.90;;;;;;5090119;28;20085;-66
2022/07/31 00:37:24;;;;;;;7.00;2.20;;;16.10;99.90;;;;;;5089544;28;20638;-66
2022/07/31 00:39:50;;;;;;;;;;;16.20;99.90;;;;;;5090245;28;20036;-66
2022/07/31 00:42:25;;;;;;;5.55;3.17;;;16.20;99.90;;;;;;5089740;28;19916;-66
2022/07/31 00:44:51;;;;;;;3.20;2.17;;;16.10;99.90;;;;;;5084467;28;20127;-65
2022/07/31 00:47:17;;;;;;;4.38;2.42;;;16.10;99.90;;;;;;5089206;28;20048;-66
2022/07/31 00:49:44;;;;;;;3.25;1.85;;;16.10;99.90;;;;;;5089753;28;20092;-66
2022/07/31 00:52:11;;;;;;;3.70;2.03;;;16.10;99.90;;;;;;5085719;28;20450;-65
2022/07/31 00:54:36;;;;;;;7.70;2.28;;;16.10;99.90;;;;;;5090409;28;20044;-66
2022/07/31 00:57:02;;;;;;;;;;;16.20;99.90;;;;;;5071766;28;20134;-66
2022/07/31 00:59:28;;;;;;;5.63;2.20;;;16.10;99.90;;;;;;5089953;28;19965;-66
2022/07/31 01:01:55;;;;;;;2.85;1.70;;;16.10;99.90;;;;;;5088932;28;20044;-65
2022/07/31 01:04:20;;;;;;;5.55;2.15;;;16.10;99.90;;;;;;5089573;28;20066;-65
2022/07/31 01:06:46;;;;;;;;;;;16.10;99.90;;;;;;5086466;28;20510;-65
2022/07/31 01:09:13;;;;;;;5.38;2.53;;;16.10;99.90;;;;;;5088976;28;19928;-67
2022/07/31 01:12:00;;;;;;;2.72;2.08;;;16.00;99.90;;;;;;5089156;28;20040;-66
2022/07/31 01:14:34;;;;;;;2.60;1.80;;;16.00;99.90;;;;;;5083196;28;20044;-67
2022/07/31 01:17:02;;;;;;;3.60;2.40;;;16.00;99.90;;;;;;5081312;28;20043;-65
2022/07/31 01:19:40;;;;;;;4.47;2.13;;;16.00;99.90;;;;;;5088919;28;20512;-66
2022/07/31 01:22:28;;;;;;;5.57;2.05;;;16.10;99.90;;;;;;5076073;28;20055;-66
2022/07/31 01:25:29;;;;;;;3.60;2.05;;;16.00;99.90;;;;;;5077611;28;20449;-65
2022/07/31 01:28:02;;;;;;;3.40;2.45;;;16.10;99.90;;;;;;5087782;28;20044;-65
2022/07/31 01:30:34;;;;;;;7.70;2.15;;;16.10;99.90;;;;;;5087069;28;20052;-66
2022/07/31 01:33:07;;;;;;;3.92;2.20;;;16.10;99.90;;;;;;5088334;28;20675;-65
2022/07/31 01:35:40;;;;;;;6.38;2.42;;;16.10;99.90;;;;;;5088878;28;20096;-65
2022/07/31 01:38:15;;;;;;;5.07;2.20;;;16.10;99.90;;;;;;5087820;28;20044;-65
2022/07/31 01:40:45;;;;;;;5.05;2.20;;;16.00;99.90;;;;;;5088760;28;20096;-65
2022/07/31 01:43:18;;;;;;;3.75;2.25;;;16.00;99.90;;;;;;5085775;28;20051;-66
2022/07/31 01:45:46;;;;;;;5.45;2.53;;;16.00;99.90;;;;;;5087967;28;20044;-65
2022/07/31 01:48:13;;;;;;;3.75;1.95;;;16.00;99.90;;;;;;5087793;28;20044;-65
2022/07/31 01:50:42;;;;;;;5.38;2.28;;;16.00;99.90;;;;;;5088074;28;20035;-65
2022/07/31 01:53:09;;;;;;;4.47;2.00;;;15.90;99.90;;;;;;5088039;28;20047;-66
2022/07/31 01:55:36;;;;;;;7.30;2.33;;;15.90;99.90;;;;;;5088344;28;20048;-66
2022/07/31 01:58:03;;;;;;;4.85;2.40;;;15.90;99.90;;;;;;5087830;28;20040;-66
2022/07/31 02:00:29;;;;;;;4.88;1.88;;;15.80;99.90;;;;;;5084639;28;20043;-65
2022/07/31 02:02:55;;;;;;;;;;;15.80;99.90;;;;;;5079749;28;20036;-66
2022/07/31 02:05:22;;;;;;;4.53;2.03;;;15.80;99.90;;;;;;5087200;28;21278;-66
2022/07/31 02:07:49;;;;;;;6.82;2.30;;;15.70;99.90;;;;;;5075533;28;20132;-65
2022/07/31 02:10:16;;;;;;;8.43;2.00;;;15.70;99.90;;;;;;5053249;28;20127;-65
2022/07/31 02:12:42;;;;;;;3.35;1.90;;;15.60;99.90;;;;;;5053252;28;20036;-65
2022/07/31 02:15:12;;;;;;;4.82;1.90;;;15.60;99.90;;;;;;5081318;28;20036;-64
2022/07/31 02:17:38;;;;;;;8.68;2.80;;;15.60;99.90;;;;;;5087080;28;20404;-66
2022/07/31 02:20:06;;;;;;;5.85;3.00;;;15.60;99.90;;;;;;5087196;28;20554;-65
2022/07/31 02:22:33;;;;;;;3.25;2.20;;;15.50;99.90;;;;;;5086479;28;20149;-69
2022/07/31 02:24:58;;;;;;;3.15;2.40;;;15.50;99.90;;;;;;5087506;28;20046;-65
2022/07/31 02:27:25;;;;;;;;;;;15.40;99.90;;;;;;5087272;28;20040;-66
2022/07/31 02:29:52;;;;;;;3.42;1.95;;;15.40;99.90;;;;;;5087143;28;20338;-66
2022/07/31 02:32:20;;;;;;;3.47;1.85;;;15.30;99.90;;;;;;5086449;28;20102;-65
2022/07/31 02:34:46;;;;;;;4.80;2.25;;;15.30;99.90;;;;;;5087348;28;20071;-65
2022/07/31 02:37:13;;;;;;;4.72;2.08;;;15.30;99.90;;;;;;5086836;28;20135;-64
2022/07/31 02:39:40;;;;;;;9.60;3.83;;;15.20;99.90;;;;;;5086545;28;20040;-65
2022/07/31 02:42:06;;;;;;;7.63;2.25;;;15.20;99.90;;;;;;5086318;28;20043;-66
2022/07/31 02:44:33;;;;;;;;;;;15.20;99.90;;;;;;5080743;28;20089;-65
2022/07/31 02:47:01;;;;;;;3.38;2.00;;;15.20;99.90;;;;;;5085839;28;19970;-66
2022/07/31 02:49:28;;;;;;;5.20;2.22;;;15.20;99.90;;;;;;5087040;28;20054;-66
2022/07/31 02:51:55;;;;;;;4.13;1.70;;;15.10;99.90;;;;;;5086252;28;20063;-65
2022/07/31 02:54:23;;;;;;;3.58;2.03;;;15.10;99.90;;;;;;5086867;28;20541;-65
2022/07/31 02:56:49;;;;;;;3.08;2.08;;;15.10;99.90;;;;;;5086265;28;20043;-65
2022/07/31 02:59:15;;;;;;;6.05;2.30;;;15.10;99.90;;;;;;5086408;28;20100;-65
2022/07/31 03:01:41;;;;;;;;;;;15.10;99.90;;;;;;5083168;28;20028;-65
2022/07/31 03:04:07;;;;;;;6.57;2.40;;;15.00;99.90;;;;;;5087299;28;19920;-65
2022/07/31 03:06:32;;;;;;;;;;;15.00;99.90;;;;;;5085701;28;20048;-66
2022/07/31 03:08:58;;;;;;;2.78;1.80;;;15.00;99.90;;;;;;5066971;28;20059;-65
2022/07/31 03:11:23;;;;;;;;;;;14.90;99.90;;;;;;5071462;28;20036;-66
2022/07/31 03:13:52;;;;;;;4.90;1.75;;;14.90;99.90;;;;;;5080352;28;19924;-65
2022/07/31 03:16:18;;;;;;;4.53;2.08;;;14.80;99.90;;;;;;5086125;28;20115;-65
2022/07/31 03:18:45;;;;;;;6.75;2.08;;;14.80;99.90;;;;;;5086137;28;20435;-65
2022/07/31 03:21:12;;;;;;;4.82;2.40;;;14.80;99.90;;;;;;5082267;28;20111;-67
2022/07/31 03:23:38;;;;;;;3.00;2.10;;;14.80;99.90;;;;;;5085768;28;20036;-66
2022/07/31 03:26:04;;;;;;;2.80;2.22;;;14.70;99.90;;;;;;5086222;28;20090;-64
2022/07/31 03:28:32;;;;;;;5.00;1.95;;;14.70;99.90;;;;;;5086375;28;20059;-66
2022/07/31 03:30:57;;;;;;;4.00;2.40;;;14.70;99.90;;;;;;5086255;28;20040;-65
2022/07/31 03:33:23;;;;;;;;;;;14.70;99.90;;;;;;5086441;28;20063;-64
2022/07/31 03:35:48;;;;;;;3.90;2.00;;;14.70;99.90;;;;;;5086318;28;19916;-65
2022/07/31 03:38:14;;;;;;;;;;;14.60;99.90;;;;;;5086466;28;20472;-64
2022/07/31 03:40:40;;;;;;;2.78;2.30;;;14.60;99.90;;;;;;5087109;28;19969;-65
2022/07/31 03:43:06;;;;;;;;;;;14.50;99.90;;;;;;5067262;28;20036;-66
2022/07/31 03:45:33;;;;;;;3.83;2.20;;;14.50;99.90;;;;;;5082337;28;19947;-65
2022/07/31 03:48:00;;;;;;;8.85;2.30;;;14.50;99.90;;;;;;5078437;28;20040;-65
2022/07/31 03:50:27;;;;;;;6.60;1.98;;;14.50;99.90;;;;;;5086100;28;20036;-65
2022/07/31 03:52:53;;;;;;;5.63;2.00;;;14.40;99.90;;;;;;5087487;28;20040;-66
2022/07/31 03:55:19;;;;;;;2.03;1.75;;;14.40;99.90;;;;;;5090732;28;20063;-65
2022/07/31 03:57:45;;;;;;;;;;;14.40;99.90;;;;;;5090872;28;20071;-65
2022/07/31 04:00:12;;;;;;;4.38;2.13;;;14.40;99.90;;;;;;5090638;28;20030;-65
2022/07/31 04:02:37;;;;;;;3.05;1.92;;;14.40;99.90;;;;;;5089894;28;20044;-64
2022/07/31 04:05:03;;;;;;;;;;;14.40;99.90;;;;;;5087197;28;20040;-66
2022/07/31 04:07:29;;;;;;;3.67;1.90;;;14.40;99.90;;;;;;5089492;28;19924;-65
2022/07/31 04:09:54;;;;;;;3.78;1.90;;;14.40;99.90;;;;;;5089686;28;20484;-65
2022/07/31 04:12:20;;;;;;;;;;;14.40;99.90;;;;;;5089991;28;20028;-64
2022/07/31 04:14:46;;;;;;;3.78;2.10;;;14.40;99.90;;;;;;5083746;28;19916;-66
2022/07/31 04:17:11;;;;;;;;;;;14.40;99.90;;;;;;5088922;28;20054;-66
2022/07/31 04:19:37;;;;;;;2.97;2.17;;;14.50;99.90;;;;;;5089283;28;20487;-65
2022/07/31 04:22:03;;;;;;;6.72;2.13;;;14.60;99.90;;;;;;5076989;28;20062;-65
2022/07/31 04:24:29;;;;;;;;;;;14.80;99.90;;;;;;5075674;28;20040;-65
2022/07/31 04:26:56;;;;;;;4.32;1.90;;;14.90;99.90;;;;;;5089453;28;19919;-66
2022/07/31 04:29:21;;;;;;;3.17;1.60;;;14.80;99.90;;;;;;5089881;28;20592;-66
2022/07/31 04:31:47;;;;;;;;;;;14.80;99.90;;;;;;5089911;28;20070;-66
2022/07/31 04:34:12;;;;;;;6.30;2.00;;;14.80;99.90;;;;;;5082704;28;19922;-65
2022/07/31 04:36:38;;;;;;;7.03;2.75;;;14.80;99.90;;;;;;5071168;28;20051;-66
2022/07/31 04:39:04;;;;;;;;;;;14.80;99.90;;;;;;5089196;28;20036;-65
2022/07/31 04:41:29;;;;;;;3.38;2.00;;;14.80;99.90;;;;;;5089471;28;20056;-64
2022/07/31 04:43:56;;;;;;;7.25;2.60;;;14.80;99.90;;;;;;5064808;28;20032;-65
2022/07/31 04:46:23;;;;;;;3.08;2.15;;;14.90;99.90;;;;;;5071155;28;20132;-65
2022/07/31 04:48:49;;;;;;;3.78;2.00;;;14.90;99.90;;;;;;5089017;28;20042;-66
2022/07/31 04:51:21;;;;;;;;;;;14.90;99.90;;;;;;5090325;28;20028;-65
2022/07/31 04:53:49;;;;;;;3.17;1.90;;;15.00;99.90;;;;;;5089267;28;19920;-65
2022/07/31 04:59:02;;;;;;;2.83;2.30;;;15.00;99.90;;;;;;5088730;28;20039;-65
2022/07/31 05:01:27;;;;;;;4.85;1.90;;;15.10;99.90;;;;;;5088907;28;20039;-64
2022/07/31 05:03:53;;;;;;;;;;;15.10;99.90;;;;;;5089101;28;20411;-66
2022/07/31 05:06:18;;;;;;;4.63;2.00;;;15.10;99.90;;;;;;5088144;28;19931;-65
2022/07/31 05:08:44;;;;;;;;;;;15.20;99.90;;;;;;5085697;28;20560;-65
2022/07/31 05:11:21;;;;;;;3.90;2.42;;;15.20;99.90;;;;;;5075532;28;19913;-65
2022/07/31 05:13:51;;;;;;;5.03;2.42;;;15.30;99.90;;;;;;5071088;28;20419;-66
2022/07/31 05:16:18;;;;;;;8.77;1.75;;;15.30;99.90;;;;;;5073539;28;20035;-66
2022/07/31 05:18:44;;;;;;;3.97;1.60;;;15.40;99.90;;;;;;5086666;28;20113;-66
2022/07/31 05:21:11;;;;;;;;;;;15.50;99.90;;;;;;5078316;28;20111;-66
2022/07/31 05:23:37;;;;;;;5.10;1.70;;;15.50;99.90;;;;;;5069823;28;19923;-65
2022/07/31 05:26:04;;;;;;;7.43;2.38;;;15.60;99.90;;;;;;5088316;28;20044;-65
2022/07/31 05:28:30;;;;;;;3.42;1.60;;;15.60;99.90;;;;;;5088445;28;20048;-65
2022/07/31 05:30:55;;;;;;;;;;;15.70;99.90;;;;;;5088868;28;20492;-66
2022/07/31 05:33:21;;;;;;;2.33;1.70;;;15.80;99.90;;;;;;5081625;28;19920;-66
2022/07/31 05:35:47;;;;;;;;;;;15.80;99.90;;;;;;5082427;28;20044;-65
2022/07/31 05:38:12;;;;;;;5.53;2.30;;;15.90;99.90;;;;;;5082612;28;19916;-66
2022/07/31 05:40:38;;;;;;;;;;;16.00;99.90;;;;;;5080674;28;20055;-64
2022/07/31 05:43:03;;;;;;;5.05;2.00;;;16.10;99.90;;;;;;5076937;28;20398;-65
2022/07/31 05:45:29;;;;;;;;;;;16.20;99.90;;;;;;5061393;28;20036;-65
2022/07/31 05:47:54;;;;;;;6.63;1.48;;;16.30;99.90;;;;;;5077947;28;20455;-66
2022/07/31 05:50:20;;;;;;;;;;;16.30;99.90;;;;;;5078358;28;20036;-66
2022/07/31 05:52:48;;;;;;;3.15;1.70;;;16.30;99.90;;;;;;5057792;28;19984;-65
2022/07/31 05:55:14;;;;;;;4.13;1.70;;;16.30;99.90;;;;;;5059986;28;20032;-65
2022/07/31 05:57:40;;;;;;;3.28;1.92;;;16.40;99.90;;;;;;5071560;28;20040;-64
2022/07/31 06:00:06;;;;;;;;;;;16.40;99.90;;;;;;5079178;28;20046;-65
2022/07/31 06:02:32;;;;;;;4.90;1.60;;;16.40;99.90;;;;;;5067429;28;20354;-66
2022/07/31 06:04:57;;;;;;;;;;;16.40;99.90;;;;;;5087630;28;20666;-64
2022/07/31 06:07:23;;;;;;;3.92;1.58;;;16.50;99.90;;;;;;5083626;28;19920;-64
2022/07/31 06:09:48;;;;;;;;;;;16.50;99.90;;;;;;5087943;28;20042;-65
2022/07/31 06:12:14;;;;;;;2.92;1.80;;;16.50;99.90;;;;;;5082002;28;19928;-65
2022/07/31 06:14:39;;;;;;;;;;;16.60;99.90;;;;;;5077932;28;20050;-65
2022/07/31 06:17:06;;;;;;;4.03;1.70;;;16.60;99.90;;;;;;5086621;28;19922;-65
2022/07/31 06:19:33;;;;;;;3.58;1.67;;;16.70;99.90;;;;;;5086805;28;20123;-65
2022/07/31 06:21:58;;;;;;;4.72;1.80;;;16.80;99.90;;;;;;5086941;28;20040;-66
2022/07/31 06:24:24;;;;;;;;;;;16.80;99.90;;;;;;5087550;28;20032;-65
2022/07/31 06:26:50;;;;;;;3.88;1.95;;;16.90;99.90;;;;;;5087267;28;19969;-66
2022/07/31 06:29:16;;;;;;;2.85;1.63;;;16.90;99.90;;;;;;5064796;28;20514;-65
2022/07/31 06:31:42;;;;;;;;;;;17.00;99.90;;;;;;5084640;28;20051;-64
2022/07/31 06:34:07;;;;;;;2.17;1.50;;;17.10;99.90;;;;;;5086754;28;20061;-64
2022/07/31 06:36:33;;;;;;;;;;;17.10;99.90;;;;;;5087470;28;20646;-65
2022/07/31 06:38:59;;;;;;;5.35;1.85;;;17.20;99.90;;;;;;5086910;28;19916;-65
2022/07/31 06:44:08;;;;;;;2.53;1.85;;;17.30;99.90;;;;;;5080456;28;20006;-66
2022/07/31 06:46:34;;;;;;;;;;;17.30;99.90;;;;;;5087011;28;20515;-66
2022/07/31 06:48:59;;;;;;;2.50;1.60;;;17.40;99.90;;;;;;5086935;28;19916;-66
2022/07/31 06:51:25;;;;;;;;;;;17.50;99.90;;;;;;5088043;28;20032;-67
2022/07/31 06:53:50;;;;;;;6.13;2.00;;;17.60;99.90;;;;;;5087684;28;20383;-68
2022/07/31 06:56:16;;;;;;;5.72;2.22;;;17.70;99.90;;;;;;5087140;28;20139;-64
2022/07/31 06:58:41;;;;;;;;;;;17.90;99.90;;;;;;5087587;28;20076;-64
2022/07/31 07:01:07;;;;;;;5.30;2.58;;;18.20;99.90;;;;;;5086637;28;19916;-62
2022/07/31 07:03:33;;;;;;;7.50;2.60;;;18.40;99.50;;;;;;5086481;28;20039;-63
2022/07/31 07:05:58;;;;;;;4.28;2.03;;;18.60;99.80;;;;;;5082557;28;20848;-64
2022/07/31 07:08:24;;;;;;;;;;;18.70;98.20;;;;;;5084288;28;20032;-62
2022/07/31 07:10:49;;;;;;;7.93;2.40;;;18.90;97.90;;;;;;5081872;28;20432;-63
2022/07/31 07:13:15;;;;;;;5.32;2.63;;;18.90;98.00;;;;;;5082484;28;20040;-62
2022/07/31 07:15:41;;;;;;;;;;;18.90;97.30;;;;;;5084110;28;20150;-62
2022/07/31 07:18:06;;;;;;;3.13;1.60;;;18.90;97.60;;;;;;5086083;28;19919;-62
2022/07/31 07:20:32;;;;;;;;;;;18.90;98.20;;;;;;5080598;28;20032;-63
2022/07/31 07:22:58;;;;;;;6.60;2.30;;;19.00;97.90;;;;;;5086120;28;20369;-62
2022/07/31 07:25:24;;;;;;;6.28;1.95;;;19.00;98.10;;;;;;5085779;28;20036;-62
2022/07/31 07:27:50;;;;;;;;;;;19.00;99.10;;;;;;5088027;28;20038;-63
2022/07/31 07:30:15;;;;;;;3.30;1.95;;;19.00;99.00;;;;;;5089723;28;19916;-63
2022/07/31 07:32:41;;;;;;;4.80;2.55;;;19.00;98.70;;;;;;5090799;28;20044;-62
2022/07/31 07:35:08;;;;;;;;;;;19.00;97.70;;;;;;5089642;28;20032;-62
2022/07/31 07:37:33;;;;;;;5.70;1.88;;;19.10;99.60;;;;;;5090327;28;19916;-62
2022/07/31 07:39:59;;;;;;;4.88;2.50;;;19.10;99.90;;;;;;5090188;28;20051;-63
2022/07/31 07:42:25;;;;;;;8.07;2.00;;;19.10;98.90;;;;;;5090517;28;20085;-63
2022/07/31 07:44:50;;;;;;;4.57;2.13;;;19.10;98.60;;;;;;5084043;28;20036;-62
2022/07/31 07:47:16;;;;;;;5.22;2.38;;;19.20;98.60;;;;;;5090063;28;20047;-63
2022/07/31 07:49:41;;;;;;;10.05;2.80;;;19.20;98.10;;;;;;5090622;28;20119;-63
2022/07/31 07:52:07;;;;;;;6.57;2.95;;;19.20;98.30;;;;;;5089665;28;20407;-61
2022/07/31 07:54:32;;;;;;;4.55;2.38;;;19.30;97.60;;;;;;5089853;28;20113;-63
2022/07/31 07:56:58;;;;;;;7.35;2.35;;;19.30;98.50;;;;;;5089943;28;20119;-62
2022/07/31 07:59:24;;;;;;;5.57;2.08;;;19.30;97.70;;;;;;5089320;28;20047;-62
2022/07/31 08:01:49;;;;;;;;;;;19.30;98.80;;;;;;5072078;28;20040;-63
2022/07/31 08:04:15;;;;;;;6.40;2.78;;;19.30;98.00;;;;;;5090163;28;20011;-63
2022/07/31 08:06:41;;;;;;;4.65;1.80;;;19.40;97.90;;;;;;5082464;28;20048;-63
2022/07/31 08:09:07;;;;;;;6.55;2.67;;;19.60;98.20;;;;;;5077504;28;20036;-63
2022/07/31 08:11:33;;;;;;;7.38;2.42;;;19.70;97.30;;;;;;5087262;28;20723;-63
2022/07/31 08:13:59;;;;;;;;;;;19.80;97.20;;;;;;5083557;28;20111;-63
2022/07/31 08:16:24;;;;;;;6.38;2.40;;;19.80;96.10;;;;;;5084232;28;19916;-62
2022/07/31 08:18:50;;;;;;;5.03;2.50;;;19.70;96.00;;;;;;5089634;28;20040;-63
2022/07/31 08:21:16;;;;;;;4.47;2.47;;;19.90;97.00;;;;;;5086356;28;20404;-64
2022/07/31 08:23:42;;;;;;;3.92;2.30;;;19.90;96.40;;;;;;5089795;28;20119;-63
2022/07/31 08:26:07;;;;;;;;;;;20.10;97.60;;;;;;5090602;28;20067;-64
2022/07/31 08:28:36;;;;;;;4.47;1.98;;;20.20;97.30;;;;;;5089943;28;19916;-62
2022/07/31 08:31:02;;;;;;;4.15;1.95;;;20.40;97.50;;;;;;5089324;28;20109;-62
2022/07/31 08:33:27;;;;;;;;;;;20.50;95.70;;;;;;5090259;28;20487;-63
2022/07/31 08:35:53;;;;;;;6.03;2.30;;;20.50;95.50;;;;;;5089786;28;19927;-63
2022/07/31 08:38:19;;;;;;;9.50;2.50;;;20.50;94.70;;;;;;5088809;28;20119;-63
2022/07/31 08:40:45;;;;;;;4.95;2.30;;;20.50;95.70;;;;;;5089683;28;20047;-62
2022/07/31 08:43:12;;;;;;;5.95;2.35;;;20.50;95.30;;;;;;5087048;28;20094;-62
2022/07/31 08:45:40;;;;;;;4.72;2.83;;;20.60;94.90;;;;;;5089396;28;20036;-62
2022/07/31 08:48:07;;;;;;;11.77;2.00;;;20.60;94.30;;;;;;5089139;28;20051;-62
2022/07/31 08:50:37;;;;;;;3.65;2.03;;;20.80;94.80;;;;;;5089463;28;20043;-64
2022/07/31 08:53:03;;;;;;;5.07;2.53;;;21.00;94.20;;;;;;5089068;28;20035;-63
2022/07/31 08:55:30;;;;;;;3.60;1.95;;;21.10;95.30;;;;;;5089353;28;20047;-63
2022/07/31 08:57:56;;;;;;;4.10;2.45;;;21.10;93.90;;;;;;5088837;28;20050;-63
2022/07/31 09:00:22;;;;;;;8.32;2.50;;;21.10;94.50;;;;;;5088376;28;20044;-64
2022/07/31 09:02:48;;;;;;;4.57;2.90;;;21.10;93.60;;;;;;5088284;28;20044;-63
2022/07/31 09:05:15;;;;;;;4.32;1.83;;;21.10;94.60;;;;;;5089326;28;20089;-64
2022/07/31 09:07:42;;;;;;;2.53;1.50;;;21.00;93.80;;;;;;5088506;28;20059;-63
2022/07/31 09:10:23;;;;;;;5.82;2.45;;;21.00;94.30;;;;;;5088149;28;20067;-63
2022/07/31 09:12:48;;;;;;;3.90;1.95;;;21.20;95.00;;;;;;5085542;28;20042;-63
2022/07/31 09:15:27;;;;;;;3.50;2.00;;;21.30;94.60;;;;;;5082715;28;20028;-63
2022/07/31 09:17:53;;;;;;;3.10;2.20;;;21.40;93.60;;;;;;5088538;28;20032;-63
2022/07/31 09:20:24;;;;;;;5.53;2.55;;;21.40;94.10;;;;;;5088023;28;20051;-63
2022/07/31 09:23:07;;;;;;;6.82;1.90;;;21.40;92.90;;;;;;5088716;28;20044;-63
2022/07/31 09:25:33;;;;;;;5.70;2.50;;;21.60;93.40;;;;;;5088421;28;20048;-63
2022/07/31 09:28:04;;;;;;;5.15;2.10;;;21.70;92.50;;;;;;5070224;28;20119;-63
2022/07/31 09:30:30;;;;;;;7.47;2.17;;;21.70;93.20;;;;;;5081411;28;20036;-63
2022/07/31 09:33:14;;;;;;;4.47;1.95;;;21.70;92.60;;;;;;5088476;28;20632;-64
2022/07/31 09:35:51;;;;;;;3.65;2.28;;;21.70;92.70;;;;;;5070203;28;20042;-63
2022/07/31 09:38:18;;;;;;;6.05;2.53;;;21.70;93.20;;;;;;5087968;28;20043;-63
2022/07/31 09:40:44;;;;;;;4.70;2.35;;;21.70;92.00;;;;;;5088472;28;20036;-63
2022/07/31 09:43:18;;;;;;;3.58;2.10;;;21.80;92.60;;;;;;5085459;28;20103;-63
2022/07/31 09:46:02;;;;;;;6.65;1.95;;;21.80;91.90;;;;;;5086070;28;20502;-63
2022/07/31 09:48:28;;;;;;;4.10;2.40;;;21.90;92.60;;;;;;5088687;28;20115;-63
2022/07/31 09:50:58;;;;;;;6.22;1.90;;;21.80;92.00;;;;;;5069394;28;20032;-63
2022/07/31 09:53:25;;;;;;;3.00;1.98;;;21.80;92.20;;;;;;5087719;28;20567;-62
2022/07/31 09:55:52;;;;;;;6.65;2.05;;;21.90;92.20;;;;;;5088119;28;20044;-63
2022/07/31 09:58:18;;;;;;;3.78;2.50;;;22.10;92.90;;;;;;5087630;28;20484;-63
2022/07/31 10:00:46;;;;;;;3.70;1.90;;;22.10;92.60;;;;;;5069484;28;20110;-64
2022/07/31 10:03:13;;;;;;;5.38;2.25;;;22.40;92.30;;;;;;5088369;28;20036;-64
2022/07/31 10:05:41;;;;;;;10.63;2.78;;;22.60;91.60;;;;;;5088498;28;20044;-63
2022/07/31 10:08:09;;;;;;;3.78;2.10;;;22.60;90.90;;;;;;5087916;28;20040;-64
2022/07/31 10:10:35;;;;;;;3.40;2.22;;;22.80;92.90;;;;;;5083486;28;20403;-64
2022/07/31 10:13:06;;;;;;;12.57;2.13;;;22.90;91.80;;;;;;5087505;28;20457;-63
2022/07/31 10:15:35;;;;;;;4.32;2.42;;;22.70;91.00;;;;;;5088067;28;20052;-63
2022/07/31 10:18:02;;;;;;;4.57;1.92;;;22.50;91.70;;;;;;5070074;28;20040;-63
2022/07/31 10:20:29;;;;;;;4.30;2.05;;;22.30;91.40;;;;;;5087208;28;20040;-63
2022/07/31 10:23:00;;;;;;;3.92;2.03;;;22.30;91.30;;;;;;5068696;28;20051;-64
2022/07/31 10:25:29;;;;;;;3.42;1.88;;;22.20;91.20;;;;;;5087268;28;20047;-63
2022/07/31 10:27:58;;;;;;;5.35;2.40;;;22.20;91.00;;;;;;5087172;28;20087;-63
2022/07/31 10:30:24;;;;;;;4.03;1.95;;;22.10;90.90;;;;;;5087523;28;20111;-63
2022/07/31 10:32:50;;;;;;;3.60;2.42;;;22.10;91.40;;;;;;5088026;28;20097;-64
2022/07/31 10:35:17;;;;;;;6.70;2.17;;;22.20;91.60;;;;;;5087612;28;20036;-63
2022/07/31 10:37:46;;;;;;;2.97;1.88;;;22.30;90.90;;;;;;5085734;28;20044;-63
2022/07/31 10:40:32;;;;;;;4.03;1.58;;;22.20;91.10;;;;;;5084137;28;20071;-64
2022/07/31 10:43:42;;;;;;;2.90;1.90;;;22.10;91.80;;;;;;5077002;28;20047;-64
2022/07/31 10:46:08;;;;;;;2.78;2.00;;;22.10;91.90;;;;;;5040512;28;20416;-64
2022/07/31 10:48:34;;;;;;;3.15;1.90;;;21.90;91.90;;;;;;5078575;28;20033;-64
2022/07/31 10:51:04;;;;;;;2.40;1.77;;;21.80;91.90;;;;;;5081063;28;20047;-64
2022/07/31 10:53:30;;;;;;;9.10;2.25;;;21.70;92.30;;;;;;5077053;28;20037;-65
2022/07/31 10:56:04;;;;;;;5.38;2.25;;;21.70;92.20;;;;;;5077070;28;20065;-64
2022/07/31 10:58:30;;;;;;;5.35;1.73;;;21.60;92.40;;;;;;5077964;28;20036;-65
2022/07/31 11:01:07;;;;;;;5.43;1.92;;;21.60;92.20;;;;;;5074943;28;20037;-65
2022/07/31 11:03:45;;;;;;;2.58;1.80;;;21.50;92.10;;;;;;5076086;28;20056;-65
2022/07/31 11:06:14;;;;;;;2.78;1.83;;;21.60;92.50;;;;;;5075524;28;20051;-66
2022/07/31 11:08:51;;;;;;;6.85;2.13;;;21.60;92.70;;;;;;5077126;28;20125;-65
2022/07/31 11:11:17;;;;;;;2.45;1.83;;;21.80;92.20;;;;;;5077116;28;20040;-65
2022/07/31 11:13:54;;;;;;;3.92;2.20;;;21.90;92.10;;;;;;5076797;28;20076;-65
2022/07/31 11:16:21;;;;;;;5.03;1.95;;;21.90;91.70;;;;;;5078918;28;20057;-64
2022/07/31 11:19:01;;;;;;;3.72;1.80;;;22.00;92.30;;;;;;5076959;28;20036;-65
2022/07/31 11:21:39;;;;;;;5.00;1.90;;;22.10;91.90;;;;;;5080076;28;20047;-64
2022/07/31 11:24:19;;;;;;;4.55;1.60;;;22.10;91.10;;;;;;5080840;28;20034;-65
2022/07/31 11:26:49;;;;;;;3.72;1.50;;;22.10;92.40;;;;;;5065583;28;20044;-65
2022/07/31 11:29:28;;;;;;;3.75;2.10;;;22.20;91.50;;;;;;5085837;28;20428;-65
2022/07/31 11:31:54;;;;;;;4.28;1.77;;;22.30;91.00;;;;;;5085545;28;20040;-64
2022/07/31 11:34:19;;;;;;;4.35;1.60;;;22.40;91.30;;;;;;5085865;28;20035;-65
2022/07/31 11:36:45;;;;;;;3.53;2.10;;;22.30;91.10;;;;;;5086501;28;20253;-64
2022/07/31 11:39:11;;;;;;;4.10;2.15;;;22.20;91.00;;;;;;5085719;28;20036;-65
2022/07/31 11:41:37;;;;;;;2.80;1.70;;;22.10;91.40;;;;;;5086729;28;20044;-64
2022/07/31 11:44:03;;;;;;;7.38;2.10;;;22.10;91.60;;;;;;5080137;28;20071;-64
2022/07/31 11:46:32;;;;;;;5.38;1.65;;;22.10;91.50;;;;;;5068135;28;20051;-64
2022/07/31 11:48:59;;;;;;;4.00;2.25;;;22.20;92.30;;;;;;5086501;28;20044;-64
2022/07/31 11:51:26;;;;;;;3.95;2.00;;;22.10;91.50;;;;;;5086333;28;20040;-65
2022/07/31 11:53:54;;;;;;;3.42;1.90;;;22.10;92.10;;;;;;5086828;28;20040;-65
2022/07/31 11:56:20;;;;;;;6.25;2.30;;;22.10;92.30;;;;;;5086363;28;20154;-65
2022/07/31 11:58:51;;;;;;;3.22;1.98;;;22.00;92.40;;;;;;5087056;28;20040;-64
2022/07/31 12:01:17;;;;;;;2.55;2.00;;;22.00;92.10;;;;;;5085798;28;20038;-65
2022/07/31 12:03:44;;;;;;;4.05;2.40;;;22.10;91.80;;;;;;5082338;28;20032;-65
2022/07/31 12:06:10;;;;;;;6.93;2.10;;;22.00;91.80;;;;;;5078424;28;20433;-67
2022/07/31 12:08:37;;;;;;;3.22;2.15;;;22.20;92.20;;;;;;5086640;28;20048;-65
2022/07/31 12:11:04;;;;;;;3.45;2.10;;;22.30;92.50;;;;;;5087372;28;20040;-65
2022/07/31 12:13:31;;;;;;;3.15;1.85;;;22.40;93.00;;;;;;5083796;28;20111;-65
2022/07/31 12:16:06;;;;;;;2.50;1.80;;;22.50;91.70;;;;;;5082348;28;20127;-64
2022/07/31 12:18:55;;;;;;;4.63;2.10;;;22.50;92.50;;;;;;5090430;28;20097;-64
2022/07/31 12:21:32;;;;;;;3.72;2.08;;;22.50;92.60;;;;;;5084196;28;20044;-64
2022/07/31 12:23:59;;;;;;;3.60;1.98;;;22.50;92.10;;;;;;5071094;28;20071;-64
2022/07/31 12:26:32;;;;;;;4.75;1.70;;;22.40;92.00;;;;;;5089627;28;20040;-64
2022/07/31 12:29:09;;;;;;;2.40;1.70;;;22.40;91.60;;;;;;5089671;28;20032;-65
2022/07/31 12:31:52;;;;;;;3.83;1.80;;;22.30;92.10;;;;;;5089592;28;20085;-64
2022/07/31 12:34:24;;;;;;;5.60;2.28;;;22.20;91.70;;;;;;5089644;28;20397;-65
2022/07/31 12:37:10;;;;;;;4.18;2.33;;;22.20;92.50;;;;;;5089642;28;20047;-65
2022/07/31 12:39:45;;;;;;;4.15;1.80;;;22.20;92.30;;;;;;5089315;28;20040;-65
2022/07/31 12:42:22;;;;;;;6.97;1.90;;;22.30;92.40;;;;;;5089364;28;20499;-66
2022/07/31 12:44:50;;;;;;;3.55;1.85;;;22.40;91.90;;;;;;5082997;28;20040;-65
2022/07/31 12:47:33;;;;;;;3.83;1.83;;;22.50;92.10;;;;;;5089097;28;20048;-65
2022/07/31 12:50:00;;;;;;;4.53;2.47;;;22.50;91.60;;;;;;5088882;28;20048;-64
2022/07/31 12:52:30;;;;;;;4.70;2.20;;;22.50;91.70;;;;;;5089164;28;20742;-65
2022/07/31 12:55:02;;;;;;;3.80;2.20;;;22.50;91.80;;;;;;5088837;28;20112;-65
2022/07/31 12:57:28;;;;;;;6.50;2.25;;;22.50;91.80;;;;;;5089157;28;20054;-64
2022/07/31 12:59:54;;;;;;;4.32;1.85;;;22.40;91.80;;;;;;5089067;28;20036;-64
2022/07/31 13:02:20;;;;;;;6.38;1.80;;;22.30;91.80;;;;;;5088897;28;20044;-64
2022/07/31 13:04:45;;;;;;;2.38;1.60;;;22.30;92.00;;;;;;5089422;28;20051;-64
2022/07/31 13:07:11;;;;;;;3.30;2.10;;;22.20;91.70;;;;;;5081711;28;20493;-65
2022/07/31 13:09:36;;;;;;;3.42;1.80;;;22.10;92.00;;;;;;5068843;28;20044;-64